Time;durP1;ratioP1;P1;durP2;ratioP2;P2;SDS_P1;SDS_P2;PMS_P1;PMS_P2;Temp;Humidity;BMP_temperature;BMP_pressure;BME280_temperature;BME280_humidity;BME280_pressure;Samples;Min_cycle;Max_cycle;Signal;HPM_P1;HPM_P2
2022/03/21 00:02:07;;;;;;;11.20;4.30;;;8.10;89.80;;;;;;5029300;28;20026;-71
2022/03/21 00:04:33;;;;;;;30.35;3.75;;;8.10;89.80;;;;;;5025638;28;20430;-72
2022/03/21 00:06:58;;;;;;;9.45;3.40;;;8.00;90.00;;;;;;5040483;28;20034;-71
2022/03/21 00:09:24;;;;;;;7.85;3.88;;;8.00;90.50;;;;;;5025535;28;20026;-70
2022/03/21 00:11:50;;;;;;;8.60;3.80;;;7.90;90.20;;;;;;5025689;28;20109;-72
2022/03/21 00:14:16;;;;;;;7.30;3.50;;;7.90;91.10;;;;;;5034882;28;20029;-71
2022/03/21 00:16:43;;;;;;;11.27;3.75;;;7.80;91.40;;;;;;5045105;28;20128;-71
2022/03/21 00:19:09;;;;;;;6.88;3.15;;;7.70;91.50;;;;;;5045206;28;20112;-72
2022/03/21 00:21:35;;;;;;;13.55;3.83;;;7.70;91.30;;;;;;5044578;28;20029;-72
2022/03/21 00:24:04;;;;;;;8.68;3.65;;;7.60;91.00;;;;;;5045060;28;20023;-72
2022/03/21 00:26:30;;;;;;;8.20;3.78;;;7.50;90.90;;;;;;5044691;28;20033;-71
2022/03/21 00:28:55;;;;;;;7.82;3.35;;;7.50;90.50;;;;;;5045041;28;20026;-71
2022/03/21 00:31:22;;;;;;;11.32;3.42;;;7.50;89.80;;;;;;5045150;28;20080;-73
2022/03/21 00:33:48;;;;;;;7.28;3.53;;;7.50;90.00;;;;;;5027565;28;20116;-70
2022/03/21 00:36:15;;;;;;;7.45;4.07;;;7.50;89.50;;;;;;5025234;28;20029;-70
2022/03/21 00:38:43;;;;;;;8.48;4.25;;;7.50;89.50;;;;;;5024456;28;20148;-72
2022/03/21 00:41:09;;;;;;;11.68;3.15;;;7.50;89.50;;;;;;5040952;28;20030;-73
2022/03/21 00:43:35;;;;;;;8.55;3.80;;;7.50;89.30;;;;;;5044829;28;20091;-70
2022/03/21 00:46:01;;;;;;;9.30;3.78;;;7.50;89.10;;;;;;5044799;28;20021;-71
2022/03/21 00:48:28;;;;;;;5.35;2.63;;;7.50;89.10;;;;;;5044376;28;20030;-71
2022/03/21 00:50:55;;;;;;;12.10;4.15;;;7.50;88.80;;;;;;5044886;28;20033;-71
2022/03/21 00:53:22;;;;;;;7.78;3.10;;;7.50;89.00;;;;;;5044761;28;20033;-71
2022/03/21 00:55:49;;;;;;;6.97;3.30;;;7.50;88.70;;;;;;5044617;28;20018;-72
2022/03/21 00:58:16;;;;;;;12.13;3.88;;;7.50;88.50;;;;;;5044905;28;20030;-72
2022/03/21 01:00:42;;;;;;;7.85;3.50;;;7.50;88.30;;;;;;5044675;28;20021;-72
2022/03/21 01:03:08;;;;;;;13.93;4.38;;;7.50;88.50;;;;;;5044488;28;20038;-72
2022/03/21 01:05:41;;;;;;;5.65;3.53;;;7.50;88.50;;;;;;5044769;28;20063;-72
2022/03/21 01:08:06;;;;;;;6.97;3.38;;;7.40;88.50;;;;;;5044427;28;20021;-72
2022/03/21 01:10:33;;;;;;;9.07;3.35;;;7.40;88.50;;;;;;5044468;28;20085;-71
2022/03/21 01:12:58;;;;;;;7.25;3.30;;;7.40;88.30;;;;;;5044676;28;20438;-72
2022/03/21 01:15:26;;;;;;;11.02;4.25;;;7.40;88.30;;;;;;5044295;28;20045;-70
2022/03/21 01:17:53;;;;;;;5.30;3.33;;;7.40;88.50;;;;;;5044302;28;20042;-71
2022/03/21 01:20:21;;;;;;;9.07;3.33;;;7.40;88.50;;;;;;5044562;28;20041;-72
2022/03/21 01:22:48;;;;;;;10.10;4.22;;;7.40;88.80;;;;;;5043097;28;20171;-70
2022/03/21 01:25:14;;;;;;;8.98;3.70;;;7.30;88.60;;;;;;5044440;28;20025;-70
2022/03/21 01:27:40;;;;;;;6.85;3.35;;;7.30;88.80;;;;;;5044605;28;20375;-72
2022/03/21 01:30:11;;;;;;;8.52;3.50;;;7.30;89.00;;;;;;5044268;28;20033;-72
2022/03/21 01:32:37;;;;;;;8.38;3.30;;;7.30;89.10;;;;;;5042930;28;20022;-71
2022/03/21 01:35:04;;;;;;;8.73;3.83;;;7.20;89.30;;;;;;5044958;28;20033;-70
2022/03/21 01:37:30;;;;;;;7.78;3.67;;;7.20;90.20;;;;;;5036089;28;20039;-72
2022/03/21 01:39:55;;;;;;;7.40;3.53;;;7.20;90.20;;;;;;5044067;28;20491;-72
2022/03/21 01:42:21;;;;;;;9.30;4.03;;;7.10;90.30;;;;;;5043334;28;20048;-72
2022/03/21 01:44:51;;;;;;;10.48;3.75;;;7.10;90.40;;;;;;5044358;28;20036;-70
2022/03/21 01:47:17;;;;;;;10.50;3.50;;;7.10;90.90;;;;;;5044439;28;20033;-70
2022/03/21 01:49:43;;;;;;;6.63;3.60;;;7.00;91.60;;;;;;5045594;28;20029;-71
2022/03/21 01:52:10;;;;;;;15.43;3.75;;;7.00;91.00;;;;;;5047708;28;20532;-72
2022/03/21 01:57:21;;;;;;;7.85;3.45;;;6.90;90.90;;;;;;5028161;28;20033;-71
2022/03/21 01:59:49;;;;;;;7.22;3.45;;;6.80;91.20;;;;;;5027740;28;20101;-70
2022/03/21 02:02:15;;;;;;;11.52;3.80;;;6.80;90.90;;;;;;5026725;28;20026;-71
2022/03/21 02:04:42;;;;;;;7.05;3.40;;;6.80;90.70;;;;;;5027900;28;20394;-72
2022/03/21 02:07:08;;;;;;;10.05;3.35;;;6.80;90.70;;;;;;5026166;28;20030;-71
2022/03/21 02:09:34;;;;;;;15.57;4.65;;;6.80;90.80;;;;;;5027819;28;20026;-70
2022/03/21 02:11:59;;;;;;;8.65;3.78;;;6.70;91.80;;;;;;5027708;28;20033;-72
2022/03/21 02:14:25;;;;;;;9.45;4.38;;;6.60;92.60;;;;;;5029101;28;20099;-72
2022/03/21 02:16:51;;;;;;;5.35;3.25;;;6.50;92.50;;;;;;5047487;28;20045;-71
2022/03/21 02:19:17;;;;;;;8.38;3.65;;;6.50;93.00;;;;;;5047466;28;20041;-70
2022/03/21 02:21:48;;;;;;;7.30;3.83;;;6.50;93.30;;;;;;5047134;28;20033;-71
2022/03/21 02:24:29;;;;;;;13.38;4.53;;;6.50;94.00;;;;;;5047620;28;20029;-71
2022/03/21 02:27:01;;;;;;;6.75;3.15;;;6.40;94.10;;;;;;5047092;28;20029;-72
2022/03/21 02:29:29;;;;;;;10.38;3.72;;;6.40;93.90;;;;;;5046924;28;20026;-73
2022/03/21 02:31:56;;;;;;;11.07;4.05;;;6.40;94.60;;;;;;5045109;28;20021;-73
2022/03/21 02:34:26;;;;;;;11.45;4.45;;;6.40;95.20;;;;;;5026571;28;20383;-73
2022/03/21 02:37:00;;;;;;;10.88;4.20;;;6.30;94.90;;;;;;5031626;28;20026;-73
2022/03/21 02:39:27;;;;;;;6.38;3.25;;;6.30;94.50;;;;;;5034563;28;20046;-72
2022/03/21 02:41:53;;;;;;;9.00;3.80;;;6.30;94.40;;;;;;5046873;28;20033;-71
2022/03/21 02:44:19;;;;;;;6.15;3.45;;;6.40;95.70;;;;;;5046985;28;20018;-73
2022/03/21 02:46:46;;;;;;;11.57;3.65;;;6.40;95.10;;;;;;5047202;28;20029;-72
2022/03/21 02:49:13;;;;;;;10.45;4.55;;;6.50;94.00;;;;;;5046411;28;20026;-73
2022/03/21 02:51:40;;;;;;;6.93;3.45;;;6.50;94.00;;;;;;5046863;28;20041;-72
2022/03/21 02:54:09;;;;;;;7.70;3.85;;;6.60;93.40;;;;;;5046360;28;20081;-70
2022/03/21 02:56:35;;;;;;;9.68;4.18;;;6.70;94.20;;;;;;5046617;28;20029;-70
2022/03/21 02:59:02;;;;;;;7.75;4.00;;;6.70;93.60;;;;;;5046723;28;20044;-70
2022/03/21 03:01:28;;;;;;;9.55;3.83;;;6.70;93.30;;;;;;5045638;28;20033;-72
2022/03/21 03:03:53;;;;;;;6.50;3.45;;;6.70;92.90;;;;;;5046603;28;20037;-73
2022/03/21 03:06:19;;;;;;;8.75;3.58;;;6.70;92.50;;;;;;5046633;28;20081;-72
2022/03/21 03:08:45;;;;;;;10.13;4.10;;;6.70;92.40;;;;;;5046204;28;20067;-72
2022/03/21 03:11:11;;;;;;;8.40;3.40;;;6.70;92.30;;;;;;5046236;28;20041;-72
2022/03/21 03:13:37;;;;;;;16.95;4.18;;;6.70;92.40;;;;;;5046436;28;20085;-72
2022/03/21 03:16:03;;;;;;;6.03;3.17;;;6.80;92.60;;;;;;5045846;28;20040;-72
2022/03/21 03:18:29;;;;;;;6.70;3.25;;;6.80;92.50;;;;;;5046119;28;20050;-71
2022/03/21 03:20:57;;;;;;;13.52;4.30;;;6.70;92.50;;;;;;5046220;28;20108;-71
2022/03/21 03:23:25;;;;;;;8.82;4.05;;;6.70;92.40;;;;;;5045887;28;20033;-72
2022/03/21 03:26:02;;;;;;;7.43;4.05;;;6.70;92.30;;;;;;5044815;28;20063;-71
2022/03/21 03:28:29;;;;;;;9.52;4.80;;;6.70;92.60;;;;;;5045946;28;20021;-70
2022/03/21 03:30:55;;;;;;;13.32;4.43;;;6.70;92.60;;;;;;5045838;28;20025;-71
2022/03/21 03:33:22;;;;;;;8.43;3.97;;;6.70;92.80;;;;;;5046010;28;20030;-71
2022/03/21 03:35:49;;;;;;;7.80;3.70;;;6.70;93.20;;;;;;5045961;28;20045;-72
2022/03/21 03:38:16;;;;;;;5.90;3.60;;;6.70;92.90;;;;;;5045897;28;20474;-72
2022/03/21 03:40:43;;;;;;;8.63;3.63;;;6.70;92.80;;;;;;5046118;28;20500;-70
2022/03/21 03:43:15;;;;;;;9.25;4.25;;;6.70;93.00;;;;;;5044176;28;20065;-73
2022/03/21 03:45:42;;;;;;;13.00;3.55;;;6.70;93.10;;;;;;5045591;28;20036;-72
2022/03/21 03:48:12;;;;;;;12.05;4.15;;;6.70;93.00;;;;;;5045609;28;20067;-73
2022/03/21 03:50:37;;;;;;;11.90;4.47;;;6.80;93.20;;;;;;5045265;28;20040;-72
2022/03/21 03:53:03;;;;;;;8.48;4.22;;;6.70;93.30;;;;;;5045475;28;20021;-71
2022/03/21 03:55:29;;;;;;;9.85;3.85;;;6.70;93.30;;;;;;5044448;28;20032;-71
2022/03/21 03:57:55;;;;;;;11.07;4.90;;;6.70;93.40;;;;;;5045040;28;20033;-73
2022/03/21 04:00:21;;;;;;;6.75;4.03;;;6.70;93.50;;;;;;5045335;28;20501;-72
2022/03/21 04:05:30;;;;;;;25.65;4.97;;;6.70;93.50;;;;;;5045124;28;20064;-70
2022/03/21 04:07:56;;;;;;;7.90;3.40;;;6.70;93.70;;;;;;5039956;28;20029;-72
2022/03/21 04:10:22;;;;;;;9.77;4.00;;;6.70;93.80;;;;;;5032493;28;20025;-71
2022/03/21 04:12:51;;;;;;;11.48;4.55;;;6.80;93.90;;;;;;5042952;28;20033;-71
2022/03/21 04:15:19;;;;;;;12.45;4.20;;;6.70;93.80;;;;;;5034666;28;20034;-71
2022/03/21 04:17:45;;;;;;;7.55;4.13;;;6.70;94.00;;;;;;5025235;28;20050;-71
2022/03/21 04:20:12;;;;;;;7.63;3.85;;;6.70;93.90;;;;;;5036541;28;20489;-70
2022/03/21 04:22:38;;;;;;;9.50;4.43;;;6.70;94.10;;;;;;5045147;28;20053;-70
2022/03/21 04:25:06;;;;;;;8.35;4.18;;;6.70;94.00;;;;;;5045119;28;20026;-71
2022/03/21 04:27:32;;;;;;;10.18;3.85;;;6.60;94.20;;;;;;5044872;28;20025;-70
2022/03/21 04:29:58;;;;;;;13.90;4.32;;;6.70;94.30;;;;;;5045007;28;20034;-71
2022/03/21 04:32:24;;;;;;;7.95;3.95;;;6.60;94.30;;;;;;5041249;28;20029;-71
2022/03/21 04:34:51;;;;;;;13.23;4.68;;;6.60;94.40;;;;;;5044553;28;20036;-71
2022/03/21 04:37:17;;;;;;;9.07;4.22;;;6.60;94.60;;;;;;5045244;28;20085;-70
2022/03/21 04:39:42;;;;;;;9.73;4.43;;;6.60;94.60;;;;;;5043384;28;20049;-71
2022/03/21 04:42:08;;;;;;;14.75;4.93;;;6.70;94.60;;;;;;5043475;28;20044;-72
2022/03/21 04:44:34;;;;;;;15.88;4.63;;;6.60;94.60;;;;;;5043666;28;20028;-72
2022/03/21 04:46:59;;;;;;;8.75;4.10;;;6.60;94.60;;;;;;5044518;28;20021;-71
2022/03/21 04:49:25;;;;;;;14.60;5.07;;;6.60;94.70;;;;;;5044885;28;20071;-72
2022/03/21 04:51:51;;;;;;;11.13;4.28;;;6.60;94.70;;;;;;5044906;28;20518;-72
2022/03/21 04:54:22;;;;;;;10.88;4.53;;;6.60;94.70;;;;;;5043394;28;20093;-71
2022/03/21 04:56:49;;;;;;;16.95;4.32;;;6.60;94.80;;;;;;5044760;28;20037;-71
2022/03/21 04:59:14;;;;;;;8.23;4.10;;;6.60;94.80;;;;;;5044839;28;20084;-72
2022/03/21 05:01:40;;;;;;;7.60;3.70;;;6.60;94.90;;;;;;5043009;28;20025;-71
2022/03/21 05:04:08;;;;;;;11.55;4.47;;;6.60;95.10;;;;;;5044642;28;20104;-71
2022/03/21 05:06:34;;;;;;;8.88;4.15;;;6.60;95.20;;;;;;5044733;28;20152;-71
2022/03/21 05:09:03;;;;;;;13.30;4.88;;;6.60;95.80;;;;;;5039697;28;20026;-71
2022/03/21 05:11:29;;;;;;;11.88;4.45;;;6.50;96.30;;;;;;5025039;28;20029;-71
2022/03/21 05:13:56;;;;;;;8.93;4.47;;;6.50;96.20;;;;;;5023364;28;20064;-72
2022/03/21 05:16:22;;;;;;;12.80;4.93;;;6.50;95.90;;;;;;5024370;28;20025;-73
2022/03/21 05:18:49;;;;;;;11.35;4.72;;;6.50;96.10;;;;;;5025118;28;20115;-71
2022/03/21 05:21:16;;;;;;;12.05;4.88;;;6.50;96.10;;;;;;5024426;28;20022;-71
2022/03/21 05:31:54;;;;;;;13.70;5.15;;;6.60;96.10;;;;;;5028061;28;20052;-73
2022/03/21 05:37:05;;;;;;;14.10;5.20;;;6.50;97.40;;;;;;5028895;28;20490;-72
2022/03/21 05:39:30;;;;;;;9.98;4.47;;;6.40;97.70;;;;;;5029319;28;20056;-72
2022/03/21 05:41:56;;;;;;;19.15;4.45;;;6.40;97.80;;;;;;5028569;28;20030;-70
2022/03/21 05:44:24;;;;;;;11.35;5.28;;;6.30;98.30;;;;;;5028735;28;20078;-71
2022/03/21 05:46:50;;;;;;;11.88;5.05;;;6.30;99.10;;;;;;5040966;28;20033;-72
2022/03/21 05:49:16;;;;;;;12.05;4.47;;;6.30;99.60;;;;;;5047042;28;20025;-70
2022/03/21 05:51:42;;;;;;;12.43;4.97;;;6.30;99.40;;;;;;5047816;28;20036;-70
2022/03/21 05:54:12;;;;;;;9.45;4.30;;;6.20;99.90;;;;;;5035191;28;20030;-71
2022/03/21 05:56:41;;;;;;;19.50;5.90;;;6.20;99.90;;;;;;5026413;28;20038;-71
2022/03/21 06:01:52;;;;;;;10.23;4.63;;;6.10;99.90;;;;;;5027974;28;20054;-72
2022/03/21 06:04:19;;;;;;;12.02;4.55;;;6.10;99.90;;;;;;5027680;28;20110;-73
2022/03/21 06:06:47;;;;;;;10.48;4.60;;;6.10;99.90;;;;;;5027354;28;20034;-73
2022/03/21 06:09:13;;;;;;;11.32;5.40;;;6.10;99.90;;;;;;5027077;28;20075;-71
2022/03/21 06:11:38;;;;;;;9.63;4.88;;;6.10;99.90;;;;;;5027199;28;20099;-72
2022/03/21 06:14:05;;;;;;;11.05;4.32;;;6.20;99.90;;;;;;5027589;28;20032;-72
2022/03/21 06:16:31;;;;;;;12.27;5.38;;;6.20;99.90;;;;;;5025391;28;20105;-71
2022/03/21 06:19:00;;;;;;;11.43;4.57;;;6.20;99.90;;;;;;5027662;28;20048;-72
2022/03/21 06:21:31;;;;;;;14.57;5.43;;;6.20;99.90;;;;;;5027460;28;20171;-72
2022/03/21 06:23:57;;;;;;;16.50;5.53;;;6.20;99.90;;;;;;5027010;28;20022;-73
2022/03/21 06:26:23;;;;;;;10.02;4.70;;;6.30;99.90;;;;;;5027126;28;20077;-71
2022/03/21 06:28:49;;;;;;;11.95;5.18;;;6.30;99.90;;;;;;5027249;28;20026;-73
2022/03/21 06:31:15;;;;;;;9.80;4.65;;;6.40;99.90;;;;;;5026763;28;20030;-72
2022/03/21 06:33:41;;;;;;;10.52;5.38;;;6.40;99.90;;;;;;5032792;28;20132;-72
2022/03/21 06:36:07;;;;;;;10.30;4.57;;;6.40;99.90;;;;;;5040466;28;20025;-71
2022/03/21 06:38:33;;;;;;;14.32;5.78;;;6.40;99.90;;;;;;5035147;28;20124;-71
2022/03/21 06:41:00;;;;;;;13.80;5.05;;;6.50;99.90;;;;;;5043329;28;20038;-71
2022/03/21 06:43:27;;;;;;;12.98;5.32;;;6.60;99.70;;;;;;5041992;28;20456;-72
2022/03/21 06:45:59;;;;;;;12.13;5.43;;;6.70;99.60;;;;;;5036334;28;20064;-72
2022/03/21 06:48:29;;;;;;;11.60;4.93;;;6.70;99.90;;;;;;5025821;28;20021;-72
2022/03/21 06:50:55;;;;;;;8.90;4.70;;;6.80;99.90;;;;;;5025919;28;20129;-70
2022/03/21 06:53:22;;;;;;;17.80;5.57;;;6.80;99.90;;;;;;5026793;28;20041;-71
2022/03/21 06:55:49;;;;;;;13.98;5.43;;;6.80;99.90;;;;;;5026912;28;20034;-71
2022/03/21 06:58:15;;;;;;;9.43;4.40;;;6.80;99.90;;;;;;5026458;28;20018;-70
2022/03/21 07:00:42;;;;;;;14.27;5.50;;;6.80;99.50;;;;;;5026712;28;20100;-71
2022/03/21 07:03:08;;;;;;;15.05;5.82;;;6.90;99.60;;;;;;5026710;28;20026;-71
2022/03/21 07:05:35;;;;;;;22.77;5.80;;;7.00;99.50;;;;;;5026123;28;20034;-71
2022/03/21 07:08:01;;;;;;;12.80;5.53;;;7.10;99.40;;;;;;5028510;28;20030;-71
2022/03/21 07:10:27;;;;;;;12.90;5.15;;;7.10;98.70;;;;;;5034922;28;20092;-71
2022/03/21 07:12:53;;;;;;;10.18;4.80;;;7.20;99.60;;;;;;5026024;28;20029;-72
2022/03/21 07:15:19;;;;;;;12.20;4.82;;;7.30;99.10;;;;;;5026623;28;20072;-72
2022/03/21 07:17:45;;;;;;;13.05;5.32;;;7.40;98.60;;;;;;5027726;28;20093;-72
2022/03/21 07:20:15;;;;;;;10.35;4.80;;;7.30;98.40;;;;;;5034650;28;20040;-71
2022/03/21 07:22:40;;;;;;;8.02;4.10;;;7.30;98.70;;;;;;5053873;28;20037;-72
2022/03/21 07:25:07;;;;;;;13.73;5.43;;;7.40;98.70;;;;;;5033774;28;20061;-71
2022/03/21 07:27:33;;;;;;;10.73;4.80;;;7.40;99.10;;;;;;5045774;28;20036;-71
2022/03/21 07:29:59;;;;;;;19.73;5.43;;;7.50;99.10;;;;;;5033655;28;20045;-72
2022/03/21 07:32:24;;;;;;;13.05;5.25;;;7.70;99.20;;;;;;5045753;28;20041;-70
2022/03/21 07:34:51;;;;;;;15.50;5.45;;;7.80;98.20;;;;;;5043755;28;20470;-71
2022/03/21 07:37:16;;;;;;;11.77;5.15;;;7.80;98.50;;;;;;5041366;28;20033;-71
2022/03/21 07:39:47;;;;;;;12.88;5.82;;;7.70;98.10;;;;;;5043313;28;20052;-73
2022/03/21 07:42:16;;;;;;;20.52;4.88;;;7.80;98.60;;;;;;5036955;28;20101;-73
2022/03/21 07:47:27;;;;;;;;;;;8.10;98.20;;;;;;5025841;28;20109;-72
2022/03/21 07:49:56;;;;;;;19.30;5.40;;;8.10;98.10;;;;;;5026082;28;19905;-73
2022/03/21 07:52:23;;;;;;;19.92;6.93;;;8.20;98.10;;;;;;5039165;28;20026;-72
2022/03/21 07:54:53;;;;;;;11.82;5.32;;;8.20;98.00;;;;;;5034315;28;20128;-72
2022/03/21 07:57:26;;;;;;;12.90;5.28;;;8.30;98.10;;;;;;5025972;28;20057;-71
2022/03/21 07:59:53;;;;;;;11.10;5.38;;;8.40;97.90;;;;;;5024211;28;20038;-72
2022/03/21 08:02:19;;;;;;;11.82;5.22;;;8.50;98.00;;;;;;5043352;28;20029;-73
2022/03/21 08:04:46;;;;;;;11.00;5.82;;;8.70;97.80;;;;;;5045283;28;20487;-72
2022/03/21 08:07:13;;;;;;;17.67;6.45;;;8.90;97.30;;;;;;5038582;28;20363;-72
2022/03/21 08:09:38;;;;;;;20.75;7.05;;;8.90;96.90;;;;;;5025852;28;20064;-73
2022/03/21 08:12:04;;;;;;;19.55;6.13;;;9.10;97.30;;;;;;5028063;28;20025;-72
2022/03/21 08:14:31;;;;;;;13.10;6.22;;;9.20;97.30;;;;;;5039365;28;20129;-70
2022/03/21 08:16:58;;;;;;;17.75;6.43;;;9.30;96.20;;;;;;5025351;28;20038;-73
2022/03/21 08:19:24;;;;;;;15.32;6.13;;;9.40;96.70;;;;;;5025407;28;20034;-73
2022/03/21 08:21:52;;;;;;;12.85;5.75;;;9.50;96.10;;;;;;5028050;28;20058;-69
2022/03/21 08:24:19;;;;;;;13.85;6.20;;;9.60;95.90;;;;;;5035853;28;20557;-72
2022/03/21 08:26:44;;;;;;;11.82;5.65;;;9.70;95.80;;;;;;5025302;28;20038;-71
2022/03/21 08:29:10;;;;;;;16.75;7.35;;;9.80;96.20;;;;;;5024805;28;20072;-70
2022/03/21 08:31:36;;;;;;;15.68;5.68;;;9.90;95.80;;;;;;5037631;28;20030;-74
2022/03/21 08:34:05;;;;;;;15.18;6.40;;;10.00;95.80;;;;;;5041552;28;20480;-72
2022/03/21 08:36:31;;;;;;;12.95;5.57;;;10.20;96.10;;;;;;5042912;28;20025;-72
2022/03/21 08:38:58;;;;;;;13.15;5.63;;;10.30;95.60;;;;;;5042938;28;20038;-73
2022/03/21 08:41:24;;;;;;;18.88;6.43;;;10.50;94.70;;;;;;5042621;28;20022;-74
2022/03/21 08:43:49;;;;;;;14.55;5.70;;;10.60;94.10;;;;;;5044016;28;20063;-74
2022/03/21 08:46:16;;;;;;;13.70;4.65;;;10.70;93.70;;;;;;5044984;28;20026;-71
2022/03/21 08:51:25;;;;;;;13.18;5.75;;;10.80;93.80;;;;;;5033673;28;20092;-71
2022/03/21 08:53:52;;;;;;;13.55;5.85;;;10.90;93.50;;;;;;5038975;28;20033;-71
2022/03/21 08:56:18;;;;;;;15.18;5.70;;;11.10;93.90;;;;;;5039859;28;20040;-73
2022/03/21 08:58:44;;;;;;;16.65;6.45;;;11.30;93.90;;;;;;5026489;28;20041;-71
2022/03/21 09:01:09;;;;;;;17.25;5.72;;;11.40;93.80;;;;;;5040140;28;20037;-70
2022/03/21 09:03:45;;;;;;;11.27;5.82;;;11.50;92.90;;;;;;5028465;28;20026;-72
2022/03/21 09:06:11;;;;;;;16.48;6.57;;;11.50;92.90;;;;;;5046885;28;20029;-72
2022/03/21 09:08:37;;;;;;;18.77;6.30;;;11.50;92.60;;;;;;5038022;28;20136;-71
2022/03/21 09:11:04;;;;;;;16.95;6.93;;;11.70;92.60;;;;;;5039119;28;20022;-70
2022/03/21 09:13:35;;;;;;;14.98;6.30;;;11.70;92.50;;;;;;5045107;28;20037;-72
2022/03/21 09:16:01;;;;;;;16.17;7.05;;;11.80;92.60;;;;;;5047133;28;20029;-69
2022/03/21 09:18:27;;;;;;;16.30;6.63;;;12.00;92.50;;;;;;5048217;28;20691;-73
2022/03/21 09:20:52;;;;;;;19.58;6.78;;;12.10;92.80;;;;;;5048945;28;20064;-70
2022/03/21 09:23:18;;;;;;;17.02;6.55;;;12.20;92.50;;;;;;5044467;28;20085;-71
2022/03/21 09:25:44;;;;;;;14.90;6.15;;;12.30;91.90;;;;;;5036479;28;20040;-72
2022/03/21 09:28:09;;;;;;;15.85;6.75;;;12.40;91.90;;;;;;5048959;28;20037;-71
2022/03/21 09:30:41;;;;;;;16.60;6.88;;;12.50;91.10;;;;;;5046991;28;20029;-74
2022/03/21 09:33:11;;;;;;;13.15;5.97;;;12.60;91.40;;;;;;5041927;28;20030;-74
2022/03/21 09:35:38;;;;;;;12.93;6.10;;;12.70;91.10;;;;;;5028518;28;20082;-73
2022/03/21 09:38:06;;;;;;;11.93;6.50;;;12.80;90.80;;;;;;5042359;28;20029;-73
2022/03/21 09:40:32;;;;;;;14.85;5.75;;;12.90;91.30;;;;;;5039030;28;20091;-70
2022/03/21 09:42:59;;;;;;;17.42;7.30;;;12.90;90.60;;;;;;5028382;28;20026;-72
2022/03/21 09:45:26;;;;;;;13.82;6.57;;;12.90;91.30;;;;;;5027656;28;20029;-75
2022/03/21 09:50:37;;;;;;;;;;;13.10;90.50;;;;;;5028792;28;20041;-71
2022/03/21 09:53:07;;;;;;;13.70;5.93;;;13.30;90.00;;;;;;5027810;28;19912;-74
2022/03/21 09:55:38;;;;;;;11.20;5.53;;;13.50;91.00;;;;;;5038168;28;20025;-71
2022/03/21 09:58:04;;;;;;;18.98;5.68;;;13.70;90.20;;;;;;5035006;28;20075;-72
2022/03/21 10:00:31;;;;;;;14.27;7.35;;;13.80;90.30;;;;;;5040012;28;20433;-71
2022/03/21 10:02:57;;;;;;;18.73;7.28;;;13.80;90.20;;;;;;5044030;28;20075;-72
2022/03/21 10:05:33;;;;;;;15.15;6.40;;;13.90;90.70;;;;;;5045138;28;20026;-71
2022/03/21 10:08:22;;;;;;;17.60;6.60;;;14.10;91.00;;;;;;5046193;28;20116;-74
2022/03/21 10:10:59;;;;;;;14.88;6.35;;;14.30;90.10;;;;;;5039227;28;20029;-70
2022/03/21 10:13:37;;;;;;;21.90;6.70;;;14.50;90.80;;;;;;5027067;28;20080;-72
2022/03/21 10:16:16;;;;;;;22.20;7.70;;;14.70;90.40;;;;;;5046606;28;20112;-71
2022/03/21 10:18:56;;;;;;;19.77;7.07;;;14.90;89.10;;;;;;5047324;28;20051;-69
2022/03/21 10:21:28;;;;;;;14.82;7.07;;;14.90;88.20;;;;;;5041380;28;20034;-70
2022/03/21 10:24:07;;;;;;;23.55;7.63;;;15.00;89.60;;;;;;5027470;28;20032;-72
2022/03/21 10:26:33;;;;;;;17.95;7.00;;;15.10;89.30;;;;;;5029357;28;20053;-71
2022/03/21 10:29:01;;;;;;;18.13;6.90;;;15.20;89.50;;;;;;5034319;28;20022;-69
2022/03/21 10:31:40;;;;;;;15.70;6.38;;;15.30;89.30;;;;;;5035165;28;20030;-70
2022/03/21 10:34:09;;;;;;;18.95;7.15;;;15.30;87.90;;;;;;5036069;28;20028;-72
2022/03/21 10:36:34;;;;;;;16.40;7.00;;;15.30;89.70;;;;;;5041453;28;20026;-70
2022/03/21 10:39:08;;;;;;;15.95;6.20;;;15.50;89.00;;;;;;5031699;28;20120;-74
2022/03/21 10:41:36;;;;;;;17.23;6.85;;;15.70;87.70;;;;;;5044318;28;20057;-72
2022/03/21 10:44:03;;;;;;;14.95;6.65;;;15.70;88.00;;;;;;5041589;28;20034;-71
2022/03/21 10:46:28;;;;;;;19.83;7.15;;;15.90;89.00;;;;;;5037088;28;20064;-71
2022/03/21 10:49:09;;;;;;;16.63;7.60;;;16.00;89.10;;;;;;5035706;28;20489;-71
2022/03/21 10:51:51;;;;;;;20.15;8.10;;;16.20;87.80;;;;;;5026919;28;20085;-72
2022/03/21 10:54:38;;;;;;;15.45;7.00;;;16.30;86.20;;;;;;5026922;28;20025;-71
2022/03/21 10:57:06;;;;;;;16.05;6.97;;;16.40;85.50;;;;;;5043830;28;20477;-69
2022/03/21 10:59:32;;;;;;;22.60;8.05;;;16.40;84.60;;;;;;5033644;28;20030;-72
2022/03/21 11:02:15;;;;;;;19.50;7.57;;;16.40;86.40;;;;;;5037574;28;20026;-73
2022/03/21 11:04:44;;;;;;;20.80;7.40;;;16.50;85.90;;;;;;5036456;28;20037;-71
2022/03/21 11:07:13;;;;;;;15.02;6.43;;;16.80;86.00;;;;;;5043875;28;20025;-69
2022/03/21 11:09:40;;;;;;;14.90;6.57;;;17.10;85.80;;;;;;5044491;28;20034;-71
2022/03/21 11:12:08;;;;;;;17.05;7.25;;;17.00;85.70;;;;;;5045295;28;20049;-72
2022/03/21 11:14:39;;;;;;;14.75;6.95;;;17.00;85.30;;;;;;5040754;28;20033;-70
2022/03/21 11:17:17;;;;;;;20.77;8.18;;;17.10;83.40;;;;;;5025272;28;20534;-72
2022/03/21 11:19:43;;;;;;;17.92;7.50;;;17.10;85.40;;;;;;5025487;28;20038;-71
2022/03/21 11:22:10;;;;;;;16.90;7.78;;;17.30;85.90;;;;;;5024233;28;20088;-70
2022/03/21 11:24:38;;;;;;;18.90;8.00;;;17.40;85.30;;;;;;5034293;28;20030;-72
2022/03/21 11:27:22;;;;;;;15.43;7.13;;;17.50;85.70;;;;;;5033145;28;20036;-70
2022/03/21 11:30:11;;;;;;;13.10;6.63;;;17.70;84.70;;;;;;5043630;28;20029;-71
2022/03/21 11:32:46;;;;;;;18.58;6.93;;;17.90;83.90;;;;;;5036467;28;20121;-71
2022/03/21 11:35:15;;;;;;;24.98;7.60;;;18.20;84.10;;;;;;5038502;28;20414;-70
2022/03/21 11:37:42;;;;;;;13.98;6.50;;;18.40;85.00;;;;;;5040991;28;20037;-72
2022/03/21 11:40:23;;;;;;;20.45;7.80;;;18.60;84.70;;;;;;5045573;28;20044;-72
2022/03/21 11:42:50;;;;;;;17.02;7.18;;;18.80;81.70;;;;;;5043021;28;20036;-71
2022/03/21 11:45:27;;;;;;;17.55;7.63;;;18.90;83.40;;;;;;5035830;28;20017;-72
2022/03/21 11:48:17;;;;;;;17.33;7.68;;;18.90;82.70;;;;;;5033232;28;20029;-71
2022/03/21 11:51:07;;;;;;;19.95;7.85;;;19.10;80.90;;;;;;5038638;28;20474;-74
2022/03/21 11:53:33;;;;;;;15.52;7.07;;;19.20;82.70;;;;;;5026221;28;20501;-72
2022/03/21 11:55:59;;;;;;;24.02;7.70;;;19.30;83.40;;;;;;5043219;28;20029;-71
2022/03/21 11:58:40;;;;;;;23.33;8.02;;;19.50;83.00;;;;;;5045020;28;20072;-71
2022/03/21 12:01:13;;;;;;;16.45;7.50;;;19.60;82.40;;;;;;5044158;28;20103;-69
2022/03/21 12:03:43;;;;;;;15.73;7.65;;;19.90;83.40;;;;;;5042425;28;20044;-73
2022/03/21 12:06:32;;;;;;;17.52;8.00;;;20.10;82.20;;;;;;5037987;28;20037;-72
2022/03/21 12:09:08;;;;;;;15.65;8.13;;;20.10;80.10;;;;;;5036458;28;20044;-72
2022/03/21 12:11:40;;;;;;;17.80;7.93;;;20.20;81.40;;;;;;5040582;28;20056;-72
2022/03/21 12:14:25;;;;;;;17.80;7.90;;;20.40;82.00;;;;;;5035740;28;20096;-73
2022/03/21 12:17:00;;;;;;;15.90;8.07;;;20.60;78.90;;;;;;5036893;28;20048;-74
2022/03/21 12:19:47;;;;;;;15.52;7.68;;;20.70;80.70;;;;;;5034110;28;20093;-72
2022/03/21 12:25:05;;;;;;;17.23;8.13;;;20.80;76.80;;;;;;5041139;28;20055;-73
2022/03/21 12:27:52;;;;;;;16.93;7.53;;;20.90;77.80;;;;;;5029470;28;20033;-73
2022/03/21 12:33:10;;;;;;;14.05;7.18;;;21.10;78.30;;;;;;5043946;28;20025;-72
2022/03/21 12:35:43;;;;;;;15.60;7.20;;;21.20;76.60;;;;;;5044695;28;20089;-71
2022/03/21 12:38:23;;;;;;;19.60;7.68;;;21.20;78.50;;;;;;5044908;28;20056;-71
2022/03/21 12:40:52;;;;;;;22.70;8.38;;;21.20;78.50;;;;;;5043933;28;20045;-70
2022/03/21 12:43:25;;;;;;;23.23;8.27;;;21.20;77.20;;;;;;5044691;28;20109;-72
2022/03/21 12:45:58;;;;;;;18.88;8.02;;;21.10;74.90;;;;;;5029034;28;20030;-71
2022/03/21 12:48:29;;;;;;;18.15;8.23;;;21.10;77.90;;;;;;5024070;28;20085;-71
2022/03/21 12:50:54;;;;;;;16.45;7.88;;;21.30;78.10;;;;;;5024651;28;20094;-72
2022/03/21 12:53:21;;;;;;;17.98;7.60;;;21.50;76.90;;;;;;5025341;28;20033;-71
2022/03/21 12:56:11;;;;;;;16.55;7.82;;;21.50;75.60;;;;;;5041836;28;20021;-72
2022/03/21 12:58:46;;;;;;;16.38;8.48;;;21.60;75.70;;;;;;5032501;28;20048;-70
2022/03/21 13:01:17;;;;;;;18.25;8.32;;;21.70;75.00;;;;;;5023225;28;20033;-71
2022/03/21 13:03:43;;;;;;;13.23;7.07;;;21.70;75.20;;;;;;5040158;28;20112;-70
2022/03/21 13:11:47;;;;;;;17.88;8.32;;;21.70;74.50;;;;;;5034938;28;20060;-70
2022/03/21 13:14:16;;;;;;;19.58;7.43;;;21.90;75.90;;;;;;5032970;28;20030;-73
2022/03/21 13:16:49;;;;;;;17.13;8.02;;;22.10;75.10;;;;;;5029575;28;20090;-71
2022/03/21 13:19:20;;;;;;;23.83;8.55;;;22.40;74.80;;;;;;5025406;28;20129;-70
2022/03/21 13:21:54;;;;;;;18.25;8.95;;;22.60;75.20;;;;;;5034823;28;20061;-72
2022/03/21 13:24:40;;;;;;;20.67;8.40;;;22.70;75.30;;;;;;5026139;28;20028;-74
2022/03/21 13:27:08;;;;;;;29.10;9.15;;;22.90;70.50;;;;;;5044782;28;20033;-70
2022/03/21 13:29:36;;;;;;;18.70;8.25;;;23.10;74.00;;;;;;5036475;28;20053;-71
2022/03/21 13:32:03;;;;;;;22.95;9.63;;;23.10;73.60;;;;;;5029471;28;20053;-70